createdAt,value
2018-10-21T00:01:54.224Z,12.74
2018-10-21T00:04:21.686Z,12.66
2018-10-21T00:06:49.212Z,12.67
2018-10-21T00:09:16.754Z,12.69
2018-10-21T00:11:44.245Z,12.72
2018-10-21T00:14:11.715Z,12.71
2018-10-21T00:16:40.206Z,12.73
2018-10-21T00:19:07.694Z,12.76
2018-10-21T00:21:35.151Z,12.84
2018-10-21T00:24:02.599Z,12.85
2018-10-21T00:26:30.120Z,12.85
2018-10-21T00:28:57.575Z,12.87
2018-10-21T00:31:25.026Z,12.82
2018-10-21T00:33:52.535Z,12.80
2018-10-21T00:36:19.961Z,12.78
2018-10-21T00:38:47.384Z,12.75
2018-10-21T00:41:14.798Z,12.73
2018-10-21T00:43:42.280Z,12.61
2018-10-21T00:46:09.764Z,12.53
2018-10-21T00:48:37.257Z,12.56
2018-10-21T00:51:04.767Z,12.55
2018-10-21T00:53:32.265Z,12.49
2018-10-21T00:55:59.817Z,12.33
2018-10-21T00:58:27.252Z,12.20
2018-10-21T01:00:54.715Z,12.08
2018-10-21T01:03:22.280Z,12.10
2018-10-21T01:05:49.694Z,12.20
2018-10-21T01:08:17.118Z,12.21
2018-10-21T01:10:44.526Z,12.21
2018-10-21T01:13:12.032Z,12.14
2018-10-21T01:15:39.430Z,12.13
2018-10-21T01:18:06.836Z,12.15
2018-10-21T01:20:34.288Z,12.15
2018-10-21T01:23:01.766Z,12.07
2018-10-21T01:25:29.875Z,12.04
2018-10-21T01:27:57.321Z,12.00
2018-10-21T01:30:24.770Z,11.85
2018-10-21T01:32:52.217Z,11.83
2018-10-21T01:35:19.692Z,11.85
2018-10-21T01:37:47.223Z,11.77
2018-10-21T01:40:24.682Z,11.78
2018-10-21T01:42:52.116Z,11.78
2018-10-21T01:45:19.598Z,11.77
2018-10-21T01:47:47.010Z,11.77
2018-10-21T01:50:14.507Z,11.75
2018-10-21T01:52:42.500Z,11.61
2018-10-21T01:55:09.952Z,11.55
2018-10-21T01:57:37.391Z,11.50
2018-10-21T02:00:04.877Z,11.48
2018-10-21T02:02:32.324Z,11.62
2018-10-21T02:05:00.315Z,11.68
2018-10-21T02:07:27.728Z,11.65
2018-10-21T02:09:55.176Z,11.37
2018-10-21T02:12:22.610Z,11.41
2018-10-21T02:14:50.083Z,11.43
2018-10-21T02:17:17.504Z,11.47
2018-10-21T02:19:44.987Z,11.47
2018-10-21T02:22:12.455Z,11.50
2018-10-21T02:24:39.887Z,11.51
2018-10-21T02:27:07.403Z,11.58
2018-10-21T02:29:34.815Z,11.63
2018-10-21T02:32:02.246Z,11.68
2018-10-21T02:34:29.732Z,11.66
2018-10-21T02:36:57.161Z,11.69
2018-10-21T02:39:24.624Z,11.62
2018-10-21T02:41:52.030Z,11.51
2018-10-21T02:44:20.089Z,11.51
2018-10-21T02:46:47.550Z,11.46
2018-10-21T02:49:14.969Z,11.50
2018-10-21T02:51:42.394Z,11.56
2018-10-21T02:54:09.855Z,11.49
2018-10-21T02:56:37.449Z,11.58
2018-10-21T02:59:04.879Z,11.61
2018-10-21T03:01:32.338Z,11.54
2018-10-21T03:03:59.766Z,11.51
2018-10-21T03:06:27.203Z,11.42
2018-10-21T03:08:54.702Z,11.49
2018-10-21T03:11:22.123Z,11.54
2018-10-21T03:13:49.694Z,11.59
2018-10-21T03:16:17.143Z,11.58
2018-10-21T03:18:44.583Z,11.57
2018-10-21T03:21:12.065Z,11.43
2018-10-21T03:23:39.462Z,11.29
2018-10-21T03:26:06.911Z,11.33
2018-10-21T03:28:34.362Z,11.34
2018-10-21T03:31:01.918Z,11.40
2018-10-21T03:33:29.917Z,11.41
2018-10-21T03:35:57.311Z,11.42
2018-10-21T03:38:24.804Z,11.46
2018-10-21T03:40:52.246Z,11.48
2018-10-21T03:43:19.687Z,11.50
2018-10-21T03:45:47.121Z,11.50
2018-10-21T03:48:14.590Z,11.52
2018-10-21T03:50:42.156Z,11.48
2018-10-21T03:53:09.646Z,11.46
2018-10-21T03:55:37.176Z,11.43
2018-10-21T03:58:04.701Z,11.37
2018-10-21T04:00:32.154Z,11.44
2018-10-21T04:02:59.625Z,11.45
2018-10-21T04:05:27.422Z,11.46
2018-10-21T04:07:54.871Z,11.48
2018-10-21T04:10:22.346Z,11.42
2018-10-21T04:12:49.816Z,11.47
2018-10-21T04:15:17.279Z,11.47
2018-10-21T04:17:44.724Z,11.39
2018-10-21T04:20:12.149Z,11.41
2018-10-21T04:22:39.601Z,11.46
2018-10-21T04:25:07.031Z,11.46
2018-10-21T04:27:34.459Z,11.48
2018-10-21T04:30:01.921Z,11.43
2018-10-21T04:32:29.435Z,11.35
2018-10-21T04:34:56.849Z,11.38
2018-10-21T04:37:35.096Z,11.35
2018-10-21T04:40:10.507Z,11.18
2018-10-21T04:42:37.943Z,11.15
2018-10-21T04:45:05.381Z,11.11
2018-10-21T04:47:32.807Z,11.07
2018-10-21T04:50:00.212Z,11.11
2018-10-21T04:52:27.658Z,11.19
2018-10-21T04:54:55.780Z,11.25
2018-10-21T04:57:23.257Z,11.21
2018-10-21T04:59:50.684Z,11.20
2018-10-21T05:02:18.135Z,11.26
2018-10-21T05:04:45.608Z,11.25
2018-10-21T05:07:13.088Z,11.22
2018-10-21T05:09:40.552Z,11.10
2018-10-21T05:12:08.035Z,11.11
2018-10-21T05:14:35.496Z,11.14
2018-10-21T05:17:02.910Z,11.24
2018-10-21T05:19:30.403Z,11.19
2018-10-21T05:21:57.945Z,11.22
2018-10-21T05:24:25.320Z,11.18
2018-10-21T05:26:52.763Z,11.14
2018-10-21T05:29:20.200Z,11.18
2018-10-21T05:31:47.644Z,11.12
2018-10-21T05:34:15.270Z,11.14
2018-10-21T05:36:42.728Z,11.13
2018-10-21T05:39:10.961Z,11.10
2018-10-21T05:41:38.442Z,10.96
2018-10-21T05:44:05.884Z,10.91
2018-10-21T05:46:33.373Z,10.95
2018-10-21T05:49:01.686Z,10.97
2018-10-21T05:51:29.207Z,10.97
2018-10-21T05:53:56.642Z,10.99
2018-10-21T05:56:24.071Z,10.99
2018-10-21T05:58:51.520Z,11.02
2018-10-21T06:01:18.963Z,10.97
2018-10-21T06:03:46.401Z,10.99
2018-10-21T06:06:13.829Z,11.04
2018-10-21T06:08:41.397Z,11.01
2018-10-21T06:11:08.878Z,11.01
2018-10-21T06:13:36.349Z,10.93
2018-10-21T06:16:03.832Z,10.98
2018-10-21T06:18:31.280Z,10.99
2018-10-21T06:20:58.779Z,10.97
2018-10-21T06:23:26.437Z,11.07
2018-10-21T06:25:54.012Z,11.12
2018-10-21T06:28:21.505Z,11.20
2018-10-21T06:30:49.918Z,11.26
2018-10-21T06:33:17.458Z,11.34
2018-10-21T06:35:44.835Z,11.36
2018-10-21T06:38:12.242Z,11.39
2018-10-21T06:40:39.670Z,11.38
2018-10-21T06:43:07.153Z,11.56
2018-10-21T06:45:34.591Z,11.61
2018-10-21T06:48:02.174Z,11.64
2018-10-21T06:50:29.678Z,11.60
2018-10-21T06:52:57.098Z,11.70
2018-10-21T06:55:24.518Z,11.74
2018-10-21T06:57:51.956Z,11.82
2018-10-21T07:00:19.445Z,11.99
2018-10-21T07:02:46.942Z,11.98
2018-10-21T07:05:14.384Z,11.89
2018-10-21T07:07:41.826Z,11.86
2018-10-21T07:10:09.307Z,11.82
2018-10-21T07:12:36.717Z,11.88
2018-10-21T07:15:04.184Z,11.91
2018-10-21T07:17:31.607Z,11.94
2018-10-21T07:19:59.092Z,12.01
2018-10-21T07:22:26.549Z,12.01
2018-10-21T07:24:54.023Z,11.86
2018-10-21T07:27:21.533Z,11.89
2018-10-21T07:29:49.335Z,12.08
2018-10-21T07:32:16.911Z,12.20
2018-10-21T07:34:44.421Z,12.32
2018-10-21T07:37:11.870Z,12.40
2018-10-21T07:39:39.380Z,12.20
2018-10-21T07:42:06.880Z,12.13
2018-10-21T07:44:35.126Z,12.04
2018-10-21T07:47:02.764Z,12.05
2018-10-21T07:49:30.228Z,12.11
2018-10-21T07:51:57.755Z,12.19
2018-10-21T07:54:25.228Z,12.33
2018-10-21T07:56:52.701Z,12.47
2018-10-21T07:59:20.227Z,12.52
2018-10-21T08:01:47.726Z,12.48
2018-10-21T08:04:15.525Z,12.39
2018-10-21T08:09:42.917Z,12.91
2018-10-21T08:12:11.421Z,12.93
2018-10-21T08:14:38.969Z,12.89
2018-10-21T08:17:06.363Z,12.75
2018-10-21T08:19:33.844Z,12.71
2018-10-21T08:22:01.310Z,12.61
2018-10-21T08:24:28.754Z,12.58
2018-10-21T08:26:56.200Z,12.50
2018-10-21T08:29:23.659Z,12.49
2018-10-21T08:31:51.413Z,12.79
2018-10-21T08:34:18.937Z,13.02
2018-10-21T08:36:46.410Z,13.11
2018-10-21T08:39:13.867Z,13.30
2018-10-21T08:41:41.285Z,13.36
2018-10-21T08:44:08.900Z,13.29
2018-10-21T08:46:36.419Z,13.41
2018-10-21T08:49:04.341Z,13.50
2018-10-21T08:51:31.701Z,13.47
2018-10-21T08:53:59.207Z,13.43
2018-10-21T08:56:26.670Z,13.52
2018-10-21T08:58:54.094Z,13.59
2018-10-21T09:01:21.529Z,13.74
2018-10-21T09:03:49.055Z,13.85
2018-10-21T09:06:16.571Z,14.01
2018-10-21T09:08:44.028Z,14.12
2018-10-21T09:11:11.517Z,14.27
2018-10-21T09:13:39.033Z,14.28
2018-10-21T09:16:06.525Z,14.39
2018-10-21T09:18:34.013Z,14.43
2018-10-21T09:21:01.472Z,14.44
2018-10-21T09:23:29.309Z,14.61
2018-10-21T09:25:56.793Z,14.81
2018-10-21T09:28:24.274Z,14.95
2018-10-21T09:30:51.717Z,14.89
2018-10-21T09:33:19.225Z,14.89
2018-10-21T09:35:46.713Z,14.88
2018-10-21T09:38:14.139Z,14.83
2018-10-21T09:40:41.693Z,14.77
2018-10-21T09:43:09.175Z,14.80
2018-10-21T09:45:36.588Z,14.89
2018-10-21T09:48:04.121Z,15.04
2018-10-21T09:50:32.075Z,15.07
2018-10-21T09:52:59.532Z,15.23
2018-10-21T09:55:27.083Z,15.37
2018-10-21T09:57:54.577Z,15.50
2018-10-21T10:00:22.248Z,15.48
2018-10-21T10:03:02.369Z,15.71
2018-10-21T10:05:29.940Z,15.83
2018-10-21T10:07:57.485Z,16.31
2018-10-21T10:10:25.088Z,16.54
2018-10-21T10:12:52.576Z,17.38
2018-10-21T10:15:19.991Z,17.63
2018-10-21T10:17:47.536Z,17.62
2018-10-21T10:20:15.550Z,17.27
2018-10-21T10:22:42.983Z,17.22
2018-10-21T10:25:10.524Z,17.04
2018-10-21T10:27:37.924Z,16.98
2018-10-21T10:30:05.381Z,17.29
2018-10-21T10:32:32.854Z,17.71
2018-10-21T10:35:00.286Z,18.18
2018-10-21T10:37:27.747Z,18.76
2018-10-21T10:39:55.243Z,18.81
2018-10-21T10:42:23.305Z,18.69
2018-10-21T10:44:50.762Z,18.94
2018-10-21T10:47:18.204Z,18.89
2018-10-21T10:49:45.664Z,18.94
2018-10-21T10:52:13.192Z,19.40
2018-10-21T10:54:40.583Z,19.64
2018-10-21T10:57:08.076Z,20.31
2018-10-21T10:59:35.600Z,20.80
2018-10-21T11:02:04.121Z,21.10
2018-10-21T11:04:31.578Z,21.70
2018-10-21T11:06:59.045Z,21.56
2018-10-21T11:09:26.465Z,21.75
2018-10-21T11:11:53.911Z,21.51
2018-10-21T11:14:21.529Z,21.84
2018-10-21T11:16:49.083Z,22.09
2018-10-21T11:19:16.653Z,22.57
2018-10-21T11:21:44.205Z,21.93
2018-10-21T11:24:11.776Z,21.74
2018-10-21T11:26:40.565Z,21.45
2018-10-21T11:29:08.034Z,20.84
2018-10-21T11:31:36.370Z,20.82
2018-10-21T11:34:03.991Z,21.44
2018-10-21T11:36:31.383Z,22.33
2018-10-21T11:38:58.827Z,23.20
2018-10-21T11:41:26.429Z,22.40
2018-10-21T11:43:53.855Z,22.43
2018-10-21T11:46:21.330Z,22.89
2018-10-21T11:48:48.707Z,22.73
2018-10-21T11:51:16.239Z,22.61
2018-10-21T11:53:44.006Z,22.56
2018-10-21T11:56:11.478Z,22.50
2018-10-21T11:58:38.995Z,22.70
2018-10-21T12:01:06.424Z,22.72
2018-10-21T12:03:33.849Z,23.55
2018-10-21T12:06:01.310Z,24.37
2018-10-21T12:08:29.183Z,24.98
2018-10-21T12:10:57.249Z,25.60
2018-10-21T12:13:24.752Z,25.37
2018-10-21T12:15:52.246Z,24.06
2018-10-21T12:18:20.247Z,24.00
2018-10-21T12:20:47.652Z,24.38
2018-10-21T12:23:15.178Z,24.21
2018-10-21T12:25:42.663Z,25.00
2018-10-21T12:28:10.208Z,25.72
2018-10-21T12:30:37.752Z,25.58
2018-10-21T12:33:05.364Z,25.44
2018-10-21T12:35:33.556Z,25.98
2018-10-21T12:38:00.997Z,26.00
2018-10-21T12:40:28.482Z,26.31
2018-10-21T12:42:55.998Z,27.57
2018-10-21T12:45:23.483Z,27.22
2018-10-21T12:47:50.915Z,27.41
2018-10-21T12:50:18.821Z,26.94
2018-10-21T12:52:46.343Z,27.75
2018-10-21T12:55:13.819Z,27.51
2018-10-21T12:57:41.223Z,27.60
2018-10-21T13:00:08.756Z,27.55
2018-10-21T13:02:36.266Z,27.59
2018-10-21T13:05:03.919Z,28.00
2018-10-21T13:07:31.426Z,28.51
2018-10-21T13:09:58.983Z,28.56
2018-10-21T13:12:26.443Z,28.79
2018-10-21T13:14:53.902Z,29.23
2018-10-21T13:17:21.401Z,29.57
2018-10-21T13:19:49.189Z,30.13
2018-10-21T13:22:16.779Z,29.88
2018-10-21T13:24:44.107Z,29.65
2018-10-21T13:27:11.712Z,29.74
2018-10-21T13:29:39.156Z,29.58
2018-10-21T13:32:06.679Z,29.76
2018-10-21T13:34:34.221Z,30.66
2018-10-21T13:37:01.718Z,31.02
2018-10-21T13:39:29.214Z,32.27
2018-10-21T13:41:56.713Z,32.08
2018-10-21T13:44:24.208Z,32.31
2018-10-21T13:46:51.946Z,31.76
2018-10-21T13:49:19.431Z,31.90
2018-10-21T13:51:46.938Z,31.58
2018-10-21T13:54:14.284Z,31.91
2018-10-21T13:56:42.792Z,32.50
2018-10-21T13:59:10.336Z,32.70
2018-10-21T14:01:38.048Z,33.12
2018-10-21T14:04:06.180Z,33.26
2018-10-21T14:06:33.667Z,33.83
2018-10-21T14:09:01.853Z,33.90
2018-10-21T14:11:29.339Z,34.31
2018-10-21T14:13:57.646Z,34.10
2018-10-21T14:16:25.263Z,33.91
2018-10-21T14:18:52.626Z,34.69
2018-10-21T14:21:20.020Z,35.24
2018-10-21T14:23:48.409Z,35.46
2018-10-21T14:26:16.040Z,34.88
2018-10-21T14:28:43.504Z,34.77
2018-10-21T14:31:11.102Z,35.16
2018-10-21T14:33:39.496Z,35.08
2018-10-21T14:36:06.980Z,35.92
2018-10-21T14:38:34.063Z,36.62
2018-10-21T14:41:01.465Z,36.97
2018-10-21T14:43:28.954Z,35.68
2018-10-21T14:45:56.220Z,35.21
2018-10-21T14:48:23.635Z,36.34
2018-10-21T14:50:51.283Z,36.59
2018-10-21T14:53:18.461Z,36.74
2018-10-21T14:55:45.911Z,37.60
2018-10-21T14:58:13.373Z,37.81
2018-10-21T15:00:40.882Z,37.80
2018-10-21T15:03:08.680Z,37.47
2018-10-21T15:05:36.005Z,37.26
2018-10-21T15:08:03.608Z,37.31
2018-10-21T15:10:30.976Z,35.92
2018-10-21T15:12:58.395Z,35.72
2018-10-21T15:15:25.831Z,35.91
2018-10-21T15:17:54.610Z,35.61
2018-10-21T15:20:22.025Z,34.35
2018-10-21T15:22:49.500Z,34.26
2018-10-21T15:25:17.093Z,33.91
2018-10-21T15:27:44.555Z,34.05
2018-10-21T15:30:12.116Z,33.89
2018-10-21T15:32:39.526Z,33.94
2018-10-21T15:35:07.150Z,33.73
2018-10-21T15:37:34.670Z,33.68
2018-10-21T15:40:02.141Z,32.88
2018-10-21T15:42:29.598Z,32.70
2018-10-21T15:44:57.114Z,32.43
2018-10-21T15:47:24.556Z,32.53
2018-10-21T15:49:52.116Z,32.61
2018-10-21T15:52:19.661Z,32.67
2018-10-21T15:54:47.007Z,32.10
2018-10-21T15:57:14.662Z,31.65
2018-10-21T15:59:42.115Z,30.82
2018-10-21T16:02:09.777Z,30.72
2018-10-21T16:04:37.209Z,29.86
2018-10-21T16:07:04.817Z,28.18
2018-10-21T16:09:32.260Z,26.18
2018-10-21T16:11:59.816Z,23.98
2018-10-21T16:14:27.274Z,23.41
2018-10-21T16:16:54.688Z,22.65
2018-10-21T16:19:22.306Z,21.39
2018-10-21T16:21:49.706Z,20.28
2018-10-21T16:24:17.501Z,19.66
2018-10-21T16:26:45.531Z,19.26
2018-10-21T16:29:13.017Z,18.89
2018-10-21T16:31:40.523Z,18.67
2018-10-21T16:34:08.703Z,18.47
2018-10-21T16:36:36.341Z,18.42
2018-10-21T16:39:03.891Z,18.33
2018-10-21T16:41:31.384Z,18.32
2018-10-21T16:43:58.998Z,18.29
2018-10-21T16:46:26.480Z,18.22
2018-10-21T16:48:53.979Z,18.15
2018-10-21T16:51:21.705Z,18.12
2018-10-21T16:53:49.099Z,18.08
2018-10-21T16:56:16.580Z,18.02
2018-10-21T16:58:44.063Z,17.98
2018-10-21T17:01:11.802Z,17.86
2018-10-21T17:03:39.428Z,17.79
2018-10-21T17:06:06.770Z,17.77
2018-10-21T17:08:34.259Z,17.74
2018-10-21T17:11:01.879Z,17.64
2018-10-21T17:13:29.416Z,17.59
2018-10-21T17:15:56.926Z,17.54
2018-10-21T17:18:24.374Z,17.45
2018-10-21T17:20:52.304Z,17.41
2018-10-21T17:23:19.828Z,17.36
2018-10-21T17:25:48.121Z,17.31
2018-10-21T17:28:15.662Z,17.27
2018-10-21T17:30:43.118Z,17.24
2018-10-21T17:33:10.608Z,17.16
2018-10-21T17:35:38.251Z,17.12
2018-10-21T17:38:05.768Z,17.08
2018-10-21T17:40:33.297Z,17.05
2018-10-21T17:43:00.732Z,16.98
2018-10-21T17:45:28.277Z,16.96
2018-10-21T17:47:56.416Z,16.94
2018-10-21T17:50:24.068Z,16.83
2018-10-21T17:52:51.563Z,16.80
2018-10-21T17:55:19.068Z,16.78
2018-10-21T17:57:46.518Z,16.76
2018-10-21T18:00:13.987Z,16.74
2018-10-21T18:02:41.495Z,16.69
2018-10-21T18:05:09.121Z,16.66
2018-10-21T18:07:36.602Z,16.63
2018-10-21T18:10:04.313Z,16.59
2018-10-21T18:12:31.871Z,16.56
2018-10-21T18:14:59.318Z,16.52
2018-10-21T18:17:26.820Z,16.51
2018-10-21T18:19:54.305Z,16.42
2018-10-21T18:22:21.696Z,16.38
2018-10-21T18:24:49.135Z,16.35
2018-10-21T18:27:16.780Z,16.34
2018-10-21T18:29:44.306Z,16.30
2018-10-21T18:32:11.763Z,16.29
2018-10-21T18:34:39.234Z,16.26
2018-10-21T18:37:06.900Z,16.24
2018-10-21T18:39:34.355Z,16.20
2018-10-21T18:42:01.813Z,16.15
2018-10-21T18:44:29.315Z,16.10
2018-10-21T18:46:56.754Z,16.02
2018-10-21T18:49:24.253Z,15.97
2018-10-21T18:51:52.785Z,15.98
2018-10-21T18:54:20.473Z,15.92
2018-10-21T18:56:47.998Z,15.91
2018-10-21T18:59:16.336Z,15.84
2018-10-21T19:01:43.919Z,15.85
2018-10-21T19:04:11.525Z,15.87
2018-10-21T19:06:39.117Z,15.86
2018-10-21T19:09:06.638Z,15.84
2018-10-21T19:11:34.081Z,15.83
2018-10-21T19:14:01.643Z,15.83
2018-10-21T19:16:29.133Z,15.83
2018-10-21T19:18:56.758Z,15.80
2018-10-21T19:21:24.185Z,15.78
2018-10-21T19:23:51.708Z,15.73
2018-10-21T19:26:19.246Z,15.70
2018-10-21T19:28:46.704Z,15.68
2018-10-21T19:31:14.319Z,15.63
2018-10-21T19:33:41.775Z,15.57
2018-10-21T19:36:09.282Z,15.57
2018-10-21T19:38:36.804Z,15.56
2018-10-21T19:41:04.315Z,15.56
2018-10-21T19:43:31.929Z,15.49
2018-10-21T19:46:00.200Z,15.43
2018-10-21T19:48:27.688Z,15.39
2018-10-21T19:50:55.145Z,15.35
2018-10-21T19:53:22.696Z,15.27
2018-10-21T19:55:50.231Z,15.27
2018-10-21T19:58:17.888Z,15.29
2018-10-21T20:00:45.275Z,15.30
2018-10-21T20:03:12.804Z,15.31
2018-10-21T20:05:40.235Z,15.33
2018-10-21T20:08:07.691Z,15.31
2018-10-21T20:10:35.267Z,15.27
2018-10-21T20:13:02.767Z,15.24
2018-10-21T20:15:30.241Z,15.22
2018-10-21T20:17:57.830Z,15.19
2018-10-21T20:20:25.469Z,15.19
2018-10-21T20:22:52.886Z,15.19
2018-10-21T20:25:20.486Z,15.17
2018-10-21T20:27:47.955Z,15.18
2018-10-21T20:30:16.087Z,15.17
2018-10-21T20:32:43.677Z,15.16
2018-10-21T20:35:11.094Z,15.16
2018-10-21T20:37:38.548Z,15.13
2018-10-21T20:40:06.096Z,15.10
2018-10-21T20:42:33.558Z,15.05
2018-10-21T20:45:01.238Z,15.04
2018-10-21T20:47:28.712Z,15.02
2018-10-21T20:49:56.857Z,15.02
2018-10-21T20:52:25.226Z,14.99
2018-10-21T20:54:52.800Z,14.99
2018-10-21T20:57:20.262Z,15.00
2018-10-21T20:59:47.755Z,15.00
2018-10-21T21:02:15.299Z,14.94
2018-10-21T21:04:42.888Z,14.91
2018-10-21T21:07:10.588Z,14.90
2018-10-21T21:09:38.561Z,14.90
2018-10-21T21:12:06.030Z,14.89
2018-10-21T21:14:33.453Z,14.87
2018-10-21T21:17:00.932Z,14.82
2018-10-21T21:19:28.414Z,14.78
2018-10-21T21:21:55.929Z,14.77
2018-10-21T21:24:23.399Z,14.79
2018-10-21T21:26:50.893Z,14.75
2018-10-21T21:29:18.612Z,14.74
2018-10-21T21:31:46.101Z,14.64
2018-10-21T21:34:13.922Z,14.60
2018-10-21T21:36:41.319Z,14.60
2018-10-21T21:39:08.780Z,14.61
2018-10-21T21:41:36.214Z,14.63
2018-10-21T21:44:03.678Z,14.56
2018-10-21T21:46:31.137Z,14.54
2018-10-21T21:48:58.558Z,14.59
2018-10-21T21:51:26.143Z,14.59
2018-10-21T21:53:53.815Z,14.56
2018-10-21T21:56:21.304Z,14.53
2018-10-21T21:58:49.394Z,14.49
2018-10-21T22:01:16.883Z,14.47
2018-10-21T22:03:44.551Z,14.46
2018-10-21T22:06:12.089Z,14.38
2018-10-21T22:08:39.446Z,14.36
2018-10-21T22:11:07.247Z,14.34
2018-10-21T22:13:34.738Z,14.32
2018-10-21T22:16:02.274Z,14.30
2018-10-21T22:18:29.828Z,14.25
2018-10-21T22:20:57.243Z,14.29
2018-10-21T22:23:24.773Z,14.30
2018-10-21T22:25:52.213Z,14.29
2018-10-21T22:28:19.658Z,14.16
2018-10-21T22:30:47.188Z,14.13
2018-10-21T22:33:14.626Z,14.18
2018-10-21T22:35:42.086Z,14.13
2018-10-21T22:38:09.626Z,14.14
2018-10-21T22:40:37.082Z,14.14
2018-10-21T22:43:04.527Z,14.09
2018-10-21T22:45:31.999Z,14.05
2018-10-21T22:47:59.497Z,14.01
2018-10-21T22:50:26.993Z,14.00
2018-10-21T22:52:54.442Z,13.98
2018-10-21T22:55:21.898Z,13.94
2018-10-21T22:57:49.423Z,13.89
2018-10-21T23:00:16.851Z,13.95
2018-10-21T23:02:44.317Z,13.86
2018-10-21T23:05:11.764Z,13.86
2018-10-21T23:07:39.215Z,13.82
2018-10-21T23:10:07.017Z,13.84
2018-10-21T23:12:34.450Z,13.84
2018-10-21T23:15:01.889Z,13.77
2018-10-21T23:17:29.313Z,13.69
2018-10-21T23:19:56.712Z,13.72
2018-10-21T23:22:24.189Z,13.69
2018-10-21T23:24:52.068Z,13.64
2018-10-21T23:27:19.503Z,13.60
2018-10-21T23:29:46.920Z,13.59
2018-10-21T23:32:14.672Z,13.60
2018-10-21T23:34:42.150Z,13.57
2018-10-21T23:37:09.604Z,13.54
2018-10-21T23:39:37.006Z,13.52
2018-10-21T23:42:04.514Z,13.54
2018-10-21T23:44:31.988Z,13.50
2018-10-21T23:46:59.456Z,13.48
2018-10-21T23:49:26.922Z,13.46
2018-10-21T23:51:54.499Z,13.38
2018-10-21T23:54:21.907Z,13.34
2018-10-21T23:56:49.363Z,13.35
2018-10-21T23:59:17.175Z,13.37
